sensor_id;sensor_type;location;lat;lon;timestamp;P1;durP1;ratioP1;P2;durP2;ratioP2
23594;SDS011;11975;47.674;9.472;2022-12-15T00:02:21;30.60;;;28.90;;
23594;SDS011;11975;47.674;9.472;2022-12-15T00:05:05;32.63;;;30.73;;
23594;SDS011;11975;47.674;9.472;2022-12-15T00:07:50;32.38;;;30.48;;
23594;SDS011;11975;47.674;9.472;2022-12-15T00:10:34;31.17;;;29.38;;
23594;SDS011;11975;47.674;9.472;2022-12-15T00:13:19;32.22;;;30.42;;
23594;SDS011;11975;47.674;9.472;2022-12-15T00:16:03;31.30;;;29.50;;
23594;SDS011;11975;47.674;9.472;2022-12-15T00:18:48;31.83;;;29.98;;
23594;SDS011;11975;47.674;9.472;2022-12-15T00:21:32;31.50;;;29.70;;
23594;SDS011;11975;47.674;9.472;2022-12-15T00:24:17;31.30;;;29.50;;
23594;SDS011;11975;47.674;9.472;2022-12-15T00:27:01;31.95;;;30.15;;
23594;SDS011;11975;47.674;9.472;2022-12-15T00:29:46;31.05;;;29.27;;
23594;SDS011;11975;47.674;9.472;2022-12-15T00:32:30;30.73;;;29.02;;
23594;SDS011;11975;47.674;9.472;2022-12-15T00:35:15;31.13;;;29.38;;
23594;SDS011;11975;47.674;9.472;2022-12-15T00:38:06;31.23;;;29.42;;
23594;SDS011;11975;47.674;9.472;2022-12-15T00:40:51;31.45;;;29.65;;
23594;SDS011;11975;47.674;9.472;2022-12-15T00:43:29;31.17;;;29.40;;
23594;SDS011;11975;47.674;9.472;2022-12-15T00:45:56;32.13;;;30.33;;
23594;SDS011;11975;47.674;9.472;2022-12-15T00:48:41;32.20;;;30.40;;
23594;SDS011;11975;47.674;9.472;2022-12-15T00:51:07;31.58;;;29.77;;
23594;SDS011;11975;47.674;9.472;2022-12-15T00:53:33;32.75;;;30.85;;
23594;SDS011;11975;47.674;9.472;2022-12-15T00:56:18;33.08;;;31.17;;
23594;SDS011;11975;47.674;9.472;2022-12-15T00:59:02;33.22;;;31.33;;
23594;SDS011;11975;47.674;9.472;2022-12-15T01:01:47;32.92;;;31.05;;
23594;SDS011;11975;47.674;9.472;2022-12-15T01:04:31;33.13;;;31.23;;
23594;SDS011;11975;47.674;9.472;2022-12-15T01:07:16;31.98;;;30.08;;
23594;SDS011;11975;47.674;9.472;2022-12-15T01:10:00;32.65;;;30.83;;
23594;SDS011;11975;47.674;9.472;2022-12-15T01:12:45;32.70;;;30.85;;
23594;SDS011;11975;47.674;9.472;2022-12-15T01:15:30;33.22;;;31.33;;
23594;SDS011;11975;47.674;9.472;2022-12-15T01:18:15;32.17;;;30.25;;
23594;SDS011;11975;47.674;9.472;2022-12-15T01:21:00;31.30;;;29.52;;
23594;SDS011;11975;47.674;9.472;2022-12-15T01:23:29;31.80;;;30.00;;
23594;SDS011;11975;47.674;9.472;2022-12-15T01:25:56;32.38;;;30.52;;
23594;SDS011;11975;47.674;9.472;2022-12-15T01:28:22;32.13;;;30.33;;
23594;SDS011;11975;47.674;9.472;2022-12-15T01:30:49;32.53;;;30.48;;
23594;SDS011;11975;47.674;9.472;2022-12-15T01:33:15;32.05;;;30.25;;
23594;SDS011;11975;47.674;9.472;2022-12-15T01:35:41;32.65;;;30.85;;
23594;SDS011;11975;47.674;9.472;2022-12-15T01:38:08;32.05;;;30.25;;
23594;SDS011;11975;47.674;9.472;2022-12-15T01:40:34;32.13;;;30.33;;
23594;SDS011;11975;47.674;9.472;2022-12-15T01:43:16;31.92;;;30.13;;
23594;SDS011;11975;47.674;9.472;2022-12-15T01:45:46;32.17;;;30.35;;
23594;SDS011;11975;47.674;9.472;2022-12-15T01:48:16;33.10;;;31.20;;
23594;SDS011;11975;47.674;9.472;2022-12-15T01:54:22;31.88;;;30.08;;
23594;SDS011;11975;47.674;9.472;2022-12-15T01:56:32;33.05;;;31.00;;
23594;SDS011;11975;47.674;9.472;2022-12-15T01:59:02;32.67;;;30.83;;
23594;SDS011;11975;47.674;9.472;2022-12-15T02:03:55;30.58;;;28.88;;
23594;SDS011;11975;47.674;9.472;2022-12-15T02:06:21;32.75;;;30.88;;
23594;SDS011;11975;47.674;9.472;2022-12-15T02:08:49;33.15;;;31.25;;
23594;SDS011;11975;47.674;9.472;2022-12-15T02:22:05;32.13;;;30.33;;
23594;SDS011;11975;47.674;9.472;2022-12-15T02:30:37;33.17;;;31.27;;
23594;SDS011;11975;47.674;9.472;2022-12-15T02:33:25;32.53;;;30.73;;
23594;SDS011;11975;47.674;9.472;2022-12-15T02:35:55;32.30;;;30.48;;
23594;SDS011;11975;47.674;9.472;2022-12-15T02:38:36;32.15;;;30.35;;
23594;SDS011;11975;47.674;9.472;2022-12-15T02:41:04;32.15;;;30.35;;
23594;SDS011;11975;47.674;9.472;2022-12-15T02:43:32;31.90;;;30.10;;
23594;SDS011;11975;47.674;9.472;2022-12-15T02:51:44;31.60;;;29.80;;
23594;SDS011;11975;47.674;9.472;2022-12-15T02:57:09;29.80;;;28.10;;
23594;SDS011;11975;47.674;9.472;2022-12-15T02:59:44;30.27;;;28.55;;
23594;SDS011;11975;47.674;9.472;2022-12-15T03:02:11;30.27;;;28.58;;
23594;SDS011;11975;47.674;9.472;2022-12-15T03:04:38;30.23;;;28.52;;
23594;SDS011;11975;47.674;9.472;2022-12-15T03:07:05;31.88;;;30.08;;
23594;SDS011;11975;47.674;9.472;2022-12-15T03:09:34;31.73;;;29.92;;
23594;SDS011;11975;47.674;9.472;2022-12-15T03:12:00;31.27;;;29.48;;
23594;SDS011;11975;47.674;9.472;2022-12-15T03:14:26;31.25;;;29.48;;
23594;SDS011;11975;47.674;9.472;2022-12-15T03:16:52;29.73;;;28.02;;
23594;SDS011;11975;47.674;9.472;2022-12-15T03:19:19;29.63;;;27.93;;
23594;SDS011;11975;47.674;9.472;2022-12-15T03:21:45;30.70;;;28.98;;
23594;SDS011;11975;47.674;9.472;2022-12-15T03:24:11;30.20;;;28.50;;
23594;SDS011;11975;47.674;9.472;2022-12-15T03:26:37;31.00;;;29.23;;
23594;SDS011;11975;47.674;9.472;2022-12-15T03:29:03;30.35;;;28.65;;
23594;SDS011;11975;47.674;9.472;2022-12-15T03:31:29;31.10;;;29.33;;
23594;SDS011;11975;47.674;9.472;2022-12-15T03:33:55;31.42;;;29.63;;
23594;SDS011;11975;47.674;9.472;2022-12-15T03:36:21;30.35;;;28.65;;
23594;SDS011;11975;47.674;9.472;2022-12-15T03:38:48;30.42;;;28.52;;
23594;SDS011;11975;47.674;9.472;2022-12-15T03:41:14;31.95;;;30.05;;
23594;SDS011;11975;47.674;9.472;2022-12-15T03:43:42;31.17;;;29.35;;
23594;SDS011;11975;47.674;9.472;2022-12-15T03:46:08;30.63;;;28.92;;
23594;SDS011;11975;47.674;9.472;2022-12-15T03:48:34;30.55;;;28.77;;
23594;SDS011;11975;47.674;9.472;2022-12-15T03:51:00;31.17;;;29.38;;
23594;SDS011;11975;47.674;9.472;2022-12-15T03:53:26;30.80;;;29.02;;
23594;SDS011;11975;47.674;9.472;2022-12-15T03:55:52;29.88;;;28.17;;
23594;SDS011;11975;47.674;9.472;2022-12-15T03:58:18;31.20;;;29.30;;
23594;SDS011;11975;47.674;9.472;2022-12-15T04:00:44;31.73;;;29.92;;
23594;SDS011;11975;47.674;9.472;2022-12-15T04:03:10;30.60;;;28.90;;
23594;SDS011;11975;47.674;9.472;2022-12-15T04:05:36;31.63;;;29.77;;
23594;SDS011;11975;47.674;9.472;2022-12-15T04:08:02;31.00;;;29.20;;
23594;SDS011;11975;47.674;9.472;2022-12-15T04:10:30;30.88;;;29.13;;
23594;SDS011;11975;47.674;9.472;2022-12-15T04:13:00;30.02;;;28.33;;
23594;SDS011;11975;47.674;9.472;2022-12-15T04:15:27;30.35;;;28.65;;
23594;SDS011;11975;47.674;9.472;2022-12-15T04:17:53;31.02;;;29.25;;
23594;SDS011;11975;47.674;9.472;2022-12-15T04:20:20;29.80;;;28.10;;
23594;SDS011;11975;47.674;9.472;2022-12-15T04:22:47;31.50;;;29.70;;
23594;SDS011;11975;47.674;9.472;2022-12-15T04:25:17;30.70;;;28.70;;
23594;SDS011;11975;47.674;9.472;2022-12-15T04:28:03;29.70;;;28.02;;
23594;SDS011;11975;47.674;9.472;2022-12-15T04:30:52;30.27;;;28.58;;
23594;SDS011;11975;47.674;9.472;2022-12-15T04:33:41;31.00;;;29.27;;
23594;SDS011;11975;47.674;9.472;2022-12-15T04:36:29;29.98;;;28.27;;
23594;SDS011;11975;47.674;9.472;2022-12-15T04:39:14;31.25;;;29.45;;
23594;SDS011;11975;47.674;9.472;2022-12-15T04:41:59;30.20;;;28.50;;
23594;SDS011;11975;47.674;9.472;2022-12-15T04:44:45;30.58;;;28.88;;
23594;SDS011;11975;47.674;9.472;2022-12-15T04:47:31;30.92;;;29.15;;
23594;SDS011;11975;47.674;9.472;2022-12-15T04:50:15;31.50;;;29.70;;
23594;SDS011;11975;47.674;9.472;2022-12-15T04:53:07;29.65;;;27.95;;
23594;SDS011;11975;47.674;9.472;2022-12-15T04:55:52;30.23;;;28.48;;
23594;SDS011;11975;47.674;9.472;2022-12-15T04:58:36;29.05;;;27.45;;
23594;SDS011;11975;47.674;9.472;2022-12-15T05:01:21;30.27;;;28.38;;
23594;SDS011;11975;47.674;9.472;2022-12-15T05:04:05;28.48;;;26.88;;
23594;SDS011;11975;47.674;9.472;2022-12-15T05:06:50;29.67;;;27.88;;
23594;SDS011;11975;47.674;9.472;2022-12-15T05:09:34;30.08;;;28.38;;
23594;SDS011;11975;47.674;9.472;2022-12-15T05:12:19;29.55;;;27.85;;
23594;SDS011;11975;47.674;9.472;2022-12-15T05:15:04;29.77;;;28.08;;
23594;SDS011;11975;47.674;9.472;2022-12-15T05:17:49;29.05;;;27.42;;
23594;SDS011;11975;47.674;9.472;2022-12-15T05:20:33;29.60;;;27.90;;
23594;SDS011;11975;47.674;9.472;2022-12-15T05:23:17;29.20;;;27.58;;
23594;SDS011;11975;47.674;9.472;2022-12-15T05:26:02;28.50;;;26.90;;
23594;SDS011;11975;47.674;9.472;2022-12-15T05:28:46;29.13;;;27.42;;
23594;SDS011;11975;47.674;9.472;2022-12-15T05:31:31;30.08;;;28.33;;
23594;SDS011;11975;47.674;9.472;2022-12-15T05:34:17;29.40;;;27.75;;
23594;SDS011;11975;47.674;9.472;2022-12-15T05:36:44;29.75;;;28.00;;
23594;SDS011;11975;47.674;9.472;2022-12-15T05:39:10;28.48;;;26.88;;
23594;SDS011;11975;47.674;9.472;2022-12-15T05:41:36;29.02;;;27.33;;
23594;SDS011;11975;47.674;9.472;2022-12-15T05:44:02;27.65;;;26.10;;
23594;SDS011;11975;47.674;9.472;2022-12-15T05:46:28;27.90;;;26.30;;
23594;SDS011;11975;47.674;9.472;2022-12-15T05:48:54;29.13;;;27.42;;
23594;SDS011;11975;47.674;9.472;2022-12-15T05:51:20;29.38;;;27.70;;
23594;SDS011;11975;47.674;9.472;2022-12-15T05:53:46;29.10;;;27.45;;
23594;SDS011;11975;47.674;9.472;2022-12-15T05:56:12;27.42;;;25.83;;
23594;SDS011;11975;47.674;9.472;2022-12-15T05:58:39;29.17;;;27.50;;
23594;SDS011;11975;47.674;9.472;2022-12-15T06:01:06;29.33;;;27.63;;
23594;SDS011;11975;47.674;9.472;2022-12-15T06:03:34;28.95;;;27.35;;
23594;SDS011;11975;47.674;9.472;2022-12-15T06:06:00;28.65;;;27.05;;
23594;SDS011;11975;47.674;9.472;2022-12-15T06:08:31;30.77;;;28.98;;
23594;SDS011;11975;47.674;9.472;2022-12-15T06:10:58;29.60;;;27.90;;
23594;SDS011;11975;47.674;9.472;2022-12-15T06:13:25;29.85;;;28.13;;
23594;SDS011;11975;47.674;9.472;2022-12-15T06:18:26;29.38;;;27.67;;
23594;SDS011;11975;47.674;9.472;2022-12-15T06:20:58;29.52;;;27.83;;
23594;SDS011;11975;47.674;9.472;2022-12-15T06:23:25;28.45;;;26.85;;
23594;SDS011;11975;47.674;9.472;2022-12-15T06:25:52;27.55;;;25.98;;
23594;SDS011;11975;47.674;9.472;2022-12-15T06:28:18;28.55;;;26.90;;
23594;SDS011;11975;47.674;9.472;2022-12-15T06:30:51;28.45;;;26.75;;
23594;SDS011;11975;47.674;9.472;2022-12-15T06:33:21;27.63;;;26.08;;
23594;SDS011;11975;47.674;9.472;2022-12-15T06:35:47;29.23;;;27.58;;
23594;SDS011;11975;47.674;9.472;2022-12-15T06:38:14;29.55;;;27.85;;
23594;SDS011;11975;47.674;9.472;2022-12-15T06:40:40;29.58;;;27.83;;
23594;SDS011;11975;47.674;9.472;2022-12-15T06:43:06;28.85;;;27.17;;
23594;SDS011;11975;47.674;9.472;2022-12-15T06:45:33;28.33;;;26.73;;
23594;SDS011;11975;47.674;9.472;2022-12-15T06:47:59;29.52;;;27.83;;
23594;SDS011;11975;47.674;9.472;2022-12-15T06:50:25;28.52;;;26.83;;
23594;SDS011;11975;47.674;9.472;2022-12-15T06:52:51;28.88;;;27.17;;
23594;SDS011;11975;47.674;9.472;2022-12-15T06:55:17;28.95;;;27.25;;
23594;SDS011;11975;47.674;9.472;2022-12-15T06:57:46;29.90;;;28.17;;
23594;SDS011;11975;47.674;9.472;2022-12-15T07:00:12;29.35;;;27.67;;
23594;SDS011;11975;47.674;9.472;2022-12-15T07:02:42;29.40;;;27.70;;
23594;SDS011;11975;47.674;9.472;2022-12-15T07:05:08;29.13;;;27.45;;
23594;SDS011;11975;47.674;9.472;2022-12-15T07:07:34;29.00;;;27.38;;
23594;SDS011;11975;47.674;9.472;2022-12-15T07:10:00;28.77;;;27.08;;
23594;SDS011;11975;47.674;9.472;2022-12-15T07:12:26;29.02;;;27.40;;
23594;SDS011;11975;47.674;9.472;2022-12-15T07:14:52;32.03;;;29.92;;
23594;SDS011;11975;47.674;9.472;2022-12-15T07:17:18;29.60;;;27.90;;
23594;SDS011;11975;47.674;9.472;2022-12-15T07:19:44;30.23;;;28.45;;
23594;SDS011;11975;47.674;9.472;2022-12-15T07:22:10;28.98;;;27.38;;
23594;SDS011;11975;47.674;9.472;2022-12-15T07:24:36;28.83;;;27.20;;
23594;SDS011;11975;47.674;9.472;2022-12-15T07:27:02;29.88;;;28.10;;
23594;SDS011;11975;47.674;9.472;2022-12-15T07:29:28;30.02;;;28.13;;
23594;SDS011;11975;47.674;9.472;2022-12-15T07:31:53;31.35;;;29.45;;
23594;SDS011;11975;47.674;9.472;2022-12-15T07:34:20;30.13;;;28.40;;
23594;SDS011;11975;47.674;9.472;2022-12-15T07:36:46;29.50;;;27.83;;
23594;SDS011;11975;47.674;9.472;2022-12-15T07:39:12;29.92;;;28.23;;
23594;SDS011;11975;47.674;9.472;2022-12-15T07:41:38;29.90;;;28.20;;
23594;SDS011;11975;47.674;9.472;2022-12-15T07:44:05;30.92;;;29.13;;
23594;SDS011;11975;47.674;9.472;2022-12-15T07:46:31;30.38;;;28.67;;
23594;SDS011;11975;47.674;9.472;2022-12-15T07:48:56;30.52;;;28.80;;
23594;SDS011;11975;47.674;9.472;2022-12-15T07:51:22;31.60;;;29.80;;
23594;SDS011;11975;47.674;9.472;2022-12-15T07:53:49;30.40;;;28.65;;
23594;SDS011;11975;47.674;9.472;2022-12-15T07:56:15;31.27;;;29.47;;
23594;SDS011;11975;47.674;9.472;2022-12-15T07:58:41;30.23;;;28.52;;
23594;SDS011;11975;47.674;9.472;2022-12-15T08:01:09;30.63;;;28.85;;
23594;SDS011;11975;47.674;9.472;2022-12-15T08:03:36;29.02;;;27.35;;
23594;SDS011;11975;47.674;9.472;2022-12-15T08:06:03;30.55;;;28.85;;
23594;SDS011;11975;47.674;9.472;2022-12-15T08:08:30;30.30;;;28.60;;
23594;SDS011;11975;47.674;9.472;2022-12-15T08:10:56;29.48;;;27.77;;
23594;SDS011;11975;47.674;9.472;2022-12-15T08:13:22;29.27;;;27.58;;
23594;SDS011;11975;47.674;9.472;2022-12-15T08:15:52;30.73;;;28.92;;
23594;SDS011;11975;47.674;9.472;2022-12-15T08:18:19;29.33;;;27.65;;
23594;SDS011;11975;47.674;9.472;2022-12-15T08:20:45;29.70;;;28.00;;
23594;SDS011;11975;47.674;9.472;2022-12-15T08:23:11;28.70;;;27.02;;
23594;SDS011;11975;47.674;9.472;2022-12-15T08:25:37;31.42;;;29.33;;
23594;SDS011;11975;47.674;9.472;2022-12-15T08:28:03;30.73;;;28.95;;
23594;SDS011;11975;47.674;9.472;2022-12-15T08:30:29;29.73;;;28.02;;
23594;SDS011;11975;47.674;9.472;2022-12-15T08:32:57;30.52;;;28.80;;
23594;SDS011;11975;47.674;9.472;2022-12-15T08:35:23;30.00;;;28.30;;
23594;SDS011;11975;47.674;9.472;2022-12-15T08:37:49;29.15;;;27.45;;
23594;SDS011;11975;47.674;9.472;2022-12-15T08:40:15;29.83;;;28.10;;
23594;SDS011;11975;47.674;9.472;2022-12-15T08:42:41;30.55;;;28.65;;
23594;SDS011;11975;47.674;9.472;2022-12-15T08:45:08;30.00;;;28.30;;
23594;SDS011;11975;47.674;9.472;2022-12-15T08:47:34;30.10;;;28.40;;
23594;SDS011;11975;47.674;9.472;2022-12-15T08:50:00;29.17;;;27.48;;
23594;SDS011;11975;47.674;9.472;2022-12-15T08:52:26;30.13;;;28.42;;
23594;SDS011;11975;47.674;9.472;2022-12-15T08:54:52;29.65;;;27.95;;
23594;SDS011;11975;47.674;9.472;2022-12-15T08:57:18;30.55;;;28.70;;
23594;SDS011;11975;47.674;9.472;2022-12-15T08:59:44;29.60;;;27.90;;
23594;SDS011;11975;47.674;9.472;2022-12-15T09:02:10;31.60;;;29.60;;
23594;SDS011;11975;47.674;9.472;2022-12-15T09:04:37;30.55;;;28.75;;
23594;SDS011;11975;47.674;9.472;2022-12-15T09:07:03;30.50;;;28.73;;
23594;SDS011;11975;47.674;9.472;2022-12-15T09:09:29;29.70;;;28.00;;
23594;SDS011;11975;47.674;9.472;2022-12-15T09:11:55;29.65;;;27.88;;
23594;SDS011;11975;47.674;9.472;2022-12-15T09:14:20;29.50;;;27.80;;
23594;SDS011;11975;47.674;9.472;2022-12-15T09:16:46;29.90;;;28.20;;
23594;SDS011;11975;47.674;9.472;2022-12-15T09:19:12;30.25;;;28.35;;
23594;SDS011;11975;47.674;9.472;2022-12-15T09:21:38;30.40;;;28.63;;
23594;SDS011;11975;47.674;9.472;2022-12-15T09:24:10;31.05;;;29.05;;
23594;SDS011;11975;47.674;9.472;2022-12-15T09:26:37;30.63;;;28.73;;
23594;SDS011;11975;47.674;9.472;2022-12-15T09:29:03;28.05;;;26.45;;
23594;SDS011;11975;47.674;9.472;2022-12-15T09:31:32;30.15;;;28.35;;
23594;SDS011;11975;47.674;9.472;2022-12-15T09:34:01;29.65;;;27.90;;
23594;SDS011;11975;47.674;9.472;2022-12-15T09:36:28;29.45;;;27.75;;
23594;SDS011;11975;47.674;9.472;2022-12-15T09:38:57;29.38;;;27.67;;
23594;SDS011;11975;47.674;9.472;2022-12-15T09:41:27;30.08;;;28.33;;
23594;SDS011;11975;47.674;9.472;2022-12-15T09:46:39;30.90;;;29.10;;
23594;SDS011;11975;47.674;9.472;2022-12-15T09:49:11;30.52;;;28.73;;
23594;SDS011;11975;47.674;9.472;2022-12-15T09:51:44;29.35;;;27.65;;
23594;SDS011;11975;47.674;9.472;2022-12-15T09:54:13;29.90;;;28.13;;
23594;SDS011;11975;47.674;9.472;2022-12-15T09:56:52;29.20;;;27.52;;
23594;SDS011;11975;47.674;9.472;2022-12-15T10:02:16;29.80;;;27.98;;
23594;SDS011;11975;47.674;9.472;2022-12-15T10:04:54;28.17;;;26.58;;
23594;SDS011;11975;47.674;9.472;2022-12-15T10:09:54;30.45;;;28.42;;
23594;SDS011;11975;47.674;9.472;2022-12-15T10:12:24;28.38;;;26.77;;
23594;SDS011;11975;47.674;9.472;2022-12-15T10:14:58;30.23;;;28.05;;
23594;SDS011;11975;47.674;9.472;2022-12-15T10:17:58;27.95;;;26.30;;
23594;SDS011;11975;47.674;9.472;2022-12-15T10:20:26;28.85;;;27.20;;
23594;SDS011;11975;47.674;9.472;2022-12-15T10:22:54;29.17;;;27.52;;
23594;SDS011;11975;47.674;9.472;2022-12-15T10:25:23;29.25;;;27.55;;
23594;SDS011;11975;47.674;9.472;2022-12-15T10:30:20;28.85;;;27.15;;
23594;SDS011;11975;47.674;9.472;2022-12-15T10:35:27;28.63;;;26.83;;
23594;SDS011;11975;47.674;9.472;2022-12-15T10:37:58;29.88;;;28.13;;
23594;SDS011;11975;47.674;9.472;2022-12-15T10:43:14;28.73;;;27.02;;
23594;SDS011;11975;47.674;9.472;2022-12-15T10:46:03;29.10;;;27.35;;
23594;SDS011;11975;47.674;9.472;2022-12-15T10:48:30;28.42;;;26.83;;
23594;SDS011;11975;47.674;9.472;2022-12-15T10:53:53;29.20;;;27.52;;
23594;SDS011;11975;47.674;9.472;2022-12-15T10:56:32;29.08;;;27.38;;
23594;SDS011;11975;47.674;9.472;2022-12-15T10:59:00;28.08;;;26.48;;
23594;SDS011;11975;47.674;9.472;2022-12-15T11:01:29;29.85;;;28.15;;
23594;SDS011;11975;47.674;9.472;2022-12-15T11:03:56;27.83;;;26.05;;
23594;SDS011;11975;47.674;9.472;2022-12-15T11:06:26;27.67;;;26.08;;
23594;SDS011;11975;47.674;9.472;2022-12-15T11:09:06;28.50;;;26.83;;
23594;SDS011;11975;47.674;9.472;2022-12-15T11:11:34;29.45;;;27.65;;
23594;SDS011;11975;47.674;9.472;2022-12-15T11:14:37;27.00;;;25.40;;
23594;SDS011;11975;47.674;9.472;2022-12-15T11:17:07;29.65;;;27.77;;
23594;SDS011;11975;47.674;9.472;2022-12-15T11:22:57;29.40;;;27.50;;
23594;SDS011;11975;47.674;9.472;2022-12-15T11:25:15;30.60;;;28.70;;
23594;SDS011;11975;47.674;9.472;2022-12-15T11:27:56;28.45;;;26.80;;
23594;SDS011;11975;47.674;9.472;2022-12-15T11:30:25;28.48;;;26.80;;
23594;SDS011;11975;47.674;9.472;2022-12-15T11:32:57;29.92;;;28.13;;
23594;SDS011;11975;47.674;9.472;2022-12-15T11:35:29;29.17;;;27.38;;
23594;SDS011;11975;47.674;9.472;2022-12-15T11:38:03;26.52;;;25.02;;
23594;SDS011;11975;47.674;9.472;2022-12-15T11:40:38;27.30;;;25.70;;
23594;SDS011;11975;47.674;9.472;2022-12-15T11:48:58;27.20;;;25.63;;
23594;SDS011;11975;47.674;9.472;2022-12-15T11:54:14;28.05;;;26.40;;
23594;SDS011;11975;47.674;9.472;2022-12-15T12:08:18;28.90;;;27.20;;
23594;SDS011;11975;47.674;9.472;2022-12-15T12:16:44;29.08;;;26.52;;
23594;SDS011;11975;47.674;9.472;2022-12-15T12:19:16;28.35;;;26.70;;
23594;SDS011;11975;47.674;9.472;2022-12-15T12:21:48;28.23;;;26.55;;
23594;SDS011;11975;47.674;9.472;2022-12-15T12:24:17;30.52;;;28.67;;
23594;SDS011;11975;47.674;9.472;2022-12-15T12:26:48;27.38;;;25.83;;
23594;SDS011;11975;47.674;9.472;2022-12-15T12:29:33;28.42;;;26.73;;
23594;SDS011;11975;47.674;9.472;2022-12-15T12:34:56;27.77;;;26.13;;
23594;SDS011;11975;47.674;9.472;2022-12-15T12:40:04;27.90;;;26.10;;
23594;SDS011;11975;47.674;9.472;2022-12-15T12:42:52;30.02;;;28.23;;
23594;SDS011;11975;47.674;9.472;2022-12-15T12:45:20;29.13;;;27.15;;
23594;SDS011;11975;47.674;9.472;2022-12-15T12:47:50;31.08;;;29.05;;
23594;SDS011;11975;47.674;9.472;2022-12-15T12:50:24;30.70;;;28.80;;
23594;SDS011;11975;47.674;9.472;2022-12-15T12:52:59;30.80;;;28.20;;
23594;SDS011;11975;47.674;9.472;2022-12-15T13:03:37;30.27;;;28.48;;
23594;SDS011;11975;47.674;9.472;2022-12-15T13:06:25;28.50;;;26.83;;
23594;SDS011;11975;47.674;9.472;2022-12-15T13:09:40;28.58;;;26.48;;
23594;SDS011;11975;47.674;9.472;2022-12-15T13:12:02;29.13;;;27.42;;
23594;SDS011;11975;47.674;9.472;2022-12-15T13:17:49;30.02;;;28.23;;
23594;SDS011;11975;47.674;9.472;2022-12-15T13:24:53;31.42;;;29.52;;
23594;SDS011;11975;47.674;9.472;2022-12-15T13:27:21;29.35;;;27.60;;
23594;SDS011;11975;47.674;9.472;2022-12-15T13:29:54;28.30;;;26.70;;
23594;SDS011;11975;47.674;9.472;2022-12-15T13:32:30;30.20;;;28.35;;
23594;SDS011;11975;47.674;9.472;2022-12-15T13:35:03;32.33;;;29.92;;
23594;SDS011;11975;47.674;9.472;2022-12-15T13:37:51;28.83;;;27.13;;
23594;SDS011;11975;47.674;9.472;2022-12-15T13:43:08;31.08;;;29.20;;
23594;SDS011;11975;47.674;9.472;2022-12-15T13:45:51;30.77;;;28.88;;
23594;SDS011;11975;47.674;9.472;2022-12-15T13:48:27;32.90;;;30.70;;
23594;SDS011;11975;47.674;9.472;2022-12-15T13:51:04;29.03;;;27.33;;
23594;SDS011;11975;47.674;9.472;2022-12-15T13:53:44;31.45;;;29.55;;
23594;SDS011;11975;47.674;9.472;2022-12-15T13:56:19;30.38;;;28.50;;
23594;SDS011;11975;47.674;9.472;2022-12-15T13:58:53;31.67;;;29.67;;
23594;SDS011;11975;47.674;9.472;2022-12-15T14:01:26;30.73;;;28.75;;
23594;SDS011;11975;47.674;9.472;2022-12-15T14:03:57;32.17;;;29.77;;
23594;SDS011;11975;47.674;9.472;2022-12-15T14:06:44;34.58;;;32.33;;
23594;SDS011;11975;47.674;9.472;2022-12-15T14:09:12;29.17;;;27.40;;
23594;SDS011;11975;47.674;9.472;2022-12-15T14:11:40;28.45;;;26.80;;
23594;SDS011;11975;47.674;9.472;2022-12-15T14:14:11;31.88;;;29.58;;
23594;SDS011;11975;47.674;9.472;2022-12-15T14:16:42;31.45;;;29.25;;
23594;SDS011;11975;47.674;9.472;2022-12-15T14:19:15;30.98;;;28.95;;
23594;SDS011;11975;47.674;9.472;2022-12-15T14:24:44;30.63;;;28.73;;
23594;SDS011;11975;47.674;9.472;2022-12-15T14:27:26;30.45;;;28.67;;
23594;SDS011;11975;47.674;9.472;2022-12-15T14:32:38;32.92;;;30.92;;
23594;SDS011;11975;47.674;9.472;2022-12-15T14:35:05;33.95;;;31.77;;
23594;SDS011;11975;47.674;9.472;2022-12-15T14:37:33;35.20;;;32.83;;
23594;SDS011;11975;47.674;9.472;2022-12-15T14:39:59;32.35;;;30.30;;
23594;SDS011;11975;47.674;9.472;2022-12-15T14:42:26;32.67;;;30.33;;
23594;SDS011;11975;47.674;9.472;2022-12-15T14:44:53;30.65;;;28.80;;
23594;SDS011;11975;47.674;9.472;2022-12-15T14:49:53;32.97;;;30.88;;
23594;SDS011;11975;47.674;9.472;2022-12-15T14:54:53;33.90;;;31.52;;
23594;SDS011;11975;47.674;9.472;2022-12-15T14:57:36;33.10;;;30.80;;
23594;SDS011;11975;47.674;9.472;2022-12-15T15:00:22;33.47;;;31.27;;
23594;SDS011;11975;47.674;9.472;2022-12-15T15:05:40;31.15;;;29.33;;
23594;SDS011;11975;47.674;9.472;2022-12-15T15:08:14;31.13;;;29.33;;
23594;SDS011;11975;47.674;9.472;2022-12-15T15:11:02;28.67;;;27.02;;
23594;SDS011;11975;47.674;9.472;2022-12-15T15:13:44;33.85;;;31.65;;
23594;SDS011;11975;47.674;9.472;2022-12-15T15:16:14;34.38;;;32.15;;
23594;SDS011;11975;47.674;9.472;2022-12-15T15:18:42;32.45;;;30.40;;
23594;SDS011;11975;47.674;9.472;2022-12-15T15:21:22;31.80;;;29.90;;
23594;SDS011;11975;47.674;9.472;2022-12-15T15:24:03;30.30;;;28.50;;
23594;SDS011;11975;47.674;9.472;2022-12-15T15:26:47;30.02;;;28.15;;
23594;SDS011;11975;47.674;9.472;2022-12-15T15:32:47;30.63;;;28.73;;
23594;SDS011;11975;47.674;9.472;2022-12-15T15:34:52;29.50;;;27.80;;
23594;SDS011;11975;47.674;9.472;2022-12-15T15:37:19;32.92;;;30.80;;
23594;SDS011;11975;47.674;9.472;2022-12-15T15:39:49;31.88;;;29.92;;
23594;SDS011;11975;47.674;9.472;2022-12-15T15:42:16;31.58;;;29.65;;
23594;SDS011;11975;47.674;9.472;2022-12-15T15:44:42;34.50;;;32.05;;
23594;SDS011;11975;47.674;9.472;2022-12-15T15:47:14;30.67;;;28.88;;
23594;SDS011;11975;47.674;9.472;2022-12-15T15:49:44;33.93;;;31.83;;
23594;SDS011;11975;47.674;9.472;2022-12-15T15:52:11;30.95;;;29.00;;
23594;SDS011;11975;47.674;9.472;2022-12-15T15:54:38;33.42;;;31.35;;
23594;SDS011;11975;47.674;9.472;2022-12-15T15:57:04;31.08;;;29.17;;
23594;SDS011;11975;47.674;9.472;2022-12-15T15:59:30;33.45;;;31.15;;
23594;SDS011;11975;47.674;9.472;2022-12-15T16:01:56;32.83;;;30.65;;
23594;SDS011;11975;47.674;9.472;2022-12-15T16:04:25;31.83;;;29.83;;
23594;SDS011;11975;47.674;9.472;2022-12-15T16:06:51;32.70;;;30.50;;
23594;SDS011;11975;47.674;9.472;2022-12-15T16:09:18;30.27;;;28.48;;
23594;SDS011;11975;47.674;9.472;2022-12-15T16:11:44;33.05;;;30.50;;
23594;SDS011;11975;47.674;9.472;2022-12-15T16:14:11;30.45;;;28.65;;
23594;SDS011;11975;47.674;9.472;2022-12-15T16:16:38;32.92;;;30.73;;
23594;SDS011;11975;47.674;9.472;2022-12-15T16:19:04;30.05;;;28.25;;
23594;SDS011;11975;47.674;9.472;2022-12-15T16:21:30;30.73;;;28.85;;
23594;SDS011;11975;47.674;9.472;2022-12-15T16:23:56;30.65;;;28.85;;
23594;SDS011;11975;47.674;9.472;2022-12-15T16:26:29;31.13;;;29.23;;
23594;SDS011;11975;47.674;9.472;2022-12-15T16:28:56;30.08;;;28.17;;
23594;SDS011;11975;47.674;9.472;2022-12-15T16:31:32;30.70;;;28.80;;
23594;SDS011;11975;47.674;9.472;2022-12-15T16:34:02;30.75;;;28.80;;
23594;SDS011;11975;47.674;9.472;2022-12-15T16:36:30;31.85;;;29.77;;
23594;SDS011;11975;47.674;9.472;2022-12-15T16:41:22;31.70;;;29.77;;
23594;SDS011;11975;47.674;9.472;2022-12-15T16:43:48;30.98;;;28.98;;
23594;SDS011;11975;47.674;9.472;2022-12-15T16:46:14;29.55;;;27.85;;
23594;SDS011;11975;47.674;9.472;2022-12-15T16:48:40;32.40;;;30.38;;
23594;SDS011;11975;47.674;9.472;2022-12-15T16:51:08;33.72;;;31.20;;
23594;SDS011;11975;47.674;9.472;2022-12-15T16:53:38;31.05;;;29.02;;